Time;durP1;ratioP1;P1;durP2;ratioP2;P2;SDS_P1;SDS_P2;PMS_P1;PMS_P2;Temp;Humidity;BMP_temperature;BMP_pressure;BME280_temperature;BME280_humidity;BME280_pressure;Samples;Min_cycle;Max_cycle;Signal;HPM_P1;HPM_P2
2022/05/12 00:01:06;;;;;;;6.15;0.70;;;12.20;99.90;;;;;;6339091;22;20044;-68
2022/05/12 00:03:32;;;;;;;4.68;0.82;;;12.20;99.90;;;;;;6311138;22;20014;-67
2022/05/12 00:05:58;;;;;;;2.95;0.80;;;12.10;99.90;;;;;;6338749;22;20014;-69
2022/05/12 00:08:23;;;;;;;6.47;1.00;;;12.00;99.90;;;;;;6338835;22;20085;-73
2022/05/12 00:10:49;;;;;;;8.82;0.98;;;12.10;99.90;;;;;;6310463;22;20014;-68
2022/05/12 00:13:15;;;;;;;8.35;1.20;;;12.00;99.90;;;;;;6338501;22;20026;-73
2022/05/12 00:15:42;;;;;;;3.75;0.80;;;11.90;99.90;;;;;;6312111;22;20094;-71
2022/05/12 00:18:08;;;;;;;4.95;0.95;;;11.80;99.90;;;;;;6310997;22;20072;-69
2022/05/12 00:20:38;;;;;;;2.97;0.90;;;11.80;99.90;;;;;;6311303;22;20053;-71
2022/05/12 00:23:12;;;;;;;3.17;0.82;;;11.70;99.90;;;;;;6339139;22;20332;-68
2022/05/12 00:25:39;;;;;;;6.50;1.05;;;11.60;99.90;;;;;;6338455;22;20404;-70
2022/05/12 00:28:05;;;;;;;5.82;1.23;;;11.60;99.90;;;;;;6310883;22;20349;-75
2022/05/12 00:30:31;;;;;;;5.13;1.10;;;11.60;99.90;;;;;;6285138;22;20022;-72
2022/05/12 00:32:56;;;;;;;2.63;0.90;;;11.60;99.90;;;;;;6338782;22;20023;-69
2022/05/12 00:35:22;;;;;;;3.95;0.93;;;11.60;99.90;;;;;;6338890;22;20011;-70
2022/05/12 00:37:48;;;;;;;4.10;1.00;;;11.70;99.90;;;;;;6338989;22;20072;-71
2022/05/12 00:40:15;;;;;;;4.65;0.88;;;11.40;99.90;;;;;;6338298;22;20013;-75
2022/05/12 00:42:59;;;;;;;4.60;1.02;;;11.40;99.90;;;;;;6338327;22;20021;-72
2022/05/12 00:45:29;;;;;;;3.72;0.77;;;11.30;99.90;;;;;;6338505;22;20444;-72
2022/05/12 00:47:56;;;;;;;2.47;0.77;;;11.40;99.90;;;;;;6338999;22;20302;-71
2022/05/12 00:50:30;;;;;;;3.10;0.95;;;11.20;99.90;;;;;;6338939;22;20141;-67
2022/05/12 00:52:58;;;;;;;5.30;1.05;;;11.10;99.90;;;;;;6338710;22;20305;-68
2022/05/12 00:55:38;;;;;;;6.18;1.00;;;11.10;99.90;;;;;;6338875;22;20052;-66
2022/05/12 00:58:07;;;;;;;4.90;1.00;;;11.10;99.90;;;;;;6338433;22;20011;-68
2022/05/12 01:00:33;;;;;;;4.72;0.80;;;11.00;99.90;;;;;;6338437;22;20010;-70
2022/05/12 01:03:03;;;;;;;5.20;0.90;;;11.00;99.90;;;;;;6338839;22;20090;-75
2022/05/12 01:05:30;;;;;;;4.78;0.80;;;10.90;99.90;;;;;;6338255;22;20022;-67
2022/05/12 01:07:57;;;;;;;5.85;0.95;;;10.90;99.90;;;;;;6310879;22;20014;-74
2022/05/12 01:10:24;;;;;;;2.78;0.70;;;11.10;99.90;;;;;;6338790;22;20090;-72
2022/05/12 01:12:51;;;;;;;3.33;0.88;;;10.80;99.90;;;;;;6310299;22;20014;-68
2022/05/12 01:15:19;;;;;;;3.90;1.10;;;10.80;99.90;;;;;;6338466;22;20022;-70
2022/05/12 01:17:46;;;;;;;4.07;0.77;;;10.80;99.90;;;;;;6338211;22;20097;-72
2022/05/12 01:20:13;;;;;;;6.60;0.70;;;10.80;99.90;;;;;;6310515;22;20110;-69
2022/05/12 01:22:58;;;;;;;5.60;0.90;;;10.90;99.90;;;;;;6338352;22;20093;-71
2022/05/12 01:25:26;;;;;;;3.90;0.88;;;10.70;99.90;;;;;;6352564;22;20010;-66
2022/05/12 01:27:52;;;;;;;7.90;1.65;;;10.60;99.90;;;;;;6349104;22;20014;-66
2022/05/12 01:30:20;;;;;;;3.08;0.70;;;10.50;99.90;;;;;;6342075;22;20020;-67
2022/05/12 01:32:49;;;;;;;3.88;0.90;;;10.50;99.90;;;;;;6313464;22;20019;-69
2022/05/12 01:35:19;;;;;;;4.03;0.70;;;10.50;99.90;;;;;;6309859;22;20022;-75
2022/05/12 01:37:46;;;;;;;4.97;0.80;;;10.30;99.90;;;;;;6338431;22;20068;-74
2022/05/12 01:40:16;;;;;;;4.57;0.90;;;10.70;99.90;;;;;;6338020;22;20471;-68
2022/05/12 01:42:41;;;;;;;3.55;0.90;;;10.30;99.90;;;;;;6338025;22;20019;-69
2022/05/12 01:45:09;;;;;;;3.92;0.80;;;10.20;99.90;;;;;;6339584;22;20011;-73
2022/05/12 01:47:36;;;;;;;2.22;0.80;;;10.20;99.90;;;;;;6340920;22;20042;-74
2022/05/12 01:50:02;;;;;;;3.63;0.90;;;10.10;99.90;;;;;;6341187;22;20057;-69
2022/05/12 01:52:28;;;;;;;3.58;0.90;;;10.10;99.90;;;;;;6341467;22;20068;-71
2022/05/12 01:54:54;;;;;;;4.63;1.10;;;10.00;99.90;;;;;;6338939;22;20448;-71
2022/05/12 01:57:22;;;;;;;1.30;0.75;;;9.90;99.90;;;;;;6338663;22;20022;-70
2022/05/12 01:59:48;;;;;;;6.93;0.90;;;10.30;99.90;;;;;;6337586;22;20093;-67
2022/05/12 02:02:14;;;;;;;2.35;0.93;;;9.80;99.90;;;;;;6337917;22;20448;-72
2022/05/12 02:04:40;;;;;;;2.50;0.90;;;9.80;99.90;;;;;;6338027;22;20015;-73
2022/05/12 02:07:07;;;;;;;2.65;0.75;;;9.80;99.90;;;;;;6338341;22;20314;-71
2022/05/12 02:09:33;;;;;;;3.70;1.05;;;9.70;99.90;;;;;;6338047;22;20022;-74
2022/05/12 02:11:59;;;;;;;2.15;0.85;;;9.60;99.90;;;;;;6338074;22;20336;-68
2022/05/12 02:14:25;;;;;;;5.10;0.93;;;9.70;99.90;;;;;;6337528;22;20014;-69
2022/05/12 02:16:50;;;;;;;2.70;1.00;;;9.60;99.90;;;;;;6309141;22;20015;-70
2022/05/12 02:19:17;;;;;;;9.40;1.23;;;9.60;99.90;;;;;;6310212;22;20088;-68
2022/05/12 02:21:43;;;;;;;3.67;1.17;;;9.60;99.90;;;;;;6338191;22;20328;-75
2022/05/12 02:24:09;;;;;;;3.15;0.88;;;9.80;99.90;;;;;;6337801;22;20019;-67
2022/05/12 02:26:35;;;;;;;3.67;1.23;;;9.60;99.90;;;;;;6337930;22;20451;-67
2022/05/12 02:29:01;;;;;;;2.70;0.90;;;9.50;99.90;;;;;;6338061;22;20043;-70
2022/05/12 02:31:26;;;;;;;3.22;0.93;;;9.50;99.90;;;;;;6337154;22;20019;-70
2022/05/12 02:33:52;;;;;;;3.35;1.00;;;9.60;99.90;;;;;;6310097;22;20010;-69
2022/05/12 02:36:18;;;;;;;4.35;1.25;;;9.50;99.90;;;;;;6310830;22;20022;-73
2022/05/12 02:38:44;;;;;;;4.20;1.17;;;9.50;99.90;;;;;;6340099;22;20406;-68
2022/05/12 02:41:10;;;;;;;4.15;1.38;;;9.50;99.90;;;;;;6339815;22;20010;-70
2022/05/12 02:43:39;;;;;;;5.53;1.20;;;9.50;99.90;;;;;;6312581;22;20026;-71
2022/05/12 02:46:08;;;;;;;7.78;1.27;;;9.50;99.90;;;;;;6339151;22;20007;-69
2022/05/12 02:48:38;;;;;;;3.88;1.20;;;9.50;99.90;;;;;;6339844;22;20011;-74
2022/05/12 02:51:04;;;;;;;6.30;1.50;;;9.50;99.90;;;;;;6311800;22;20007;-67
2022/05/12 02:53:31;;;;;;;5.03;1.42;;;9.40;99.90;;;;;;6339828;22;20079;-67
2022/05/12 02:55:58;;;;;;;6.93;1.52;;;9.40;99.90;;;;;;6312176;22;20061;-66
2022/05/12 02:58:24;;;;;;;6.35;1.60;;;9.30;99.90;;;;;;6339855;22;20007;-72
2022/05/12 03:00:50;;;;;;;6.80;1.42;;;9.30;99.90;;;;;;6338888;22;20018;-69
2022/05/12 03:03:16;;;;;;;5.43;1.30;;;9.30;99.90;;;;;;6339659;22;20010;-66
2022/05/12 03:05:42;;;;;;;7.53;1.50;;;9.30;99.90;;;;;;6311870;22;20098;-70
2022/05/12 03:08:09;;;;;;;5.40;1.40;;;9.30;99.90;;;;;;6341417;22;20065;-68
2022/05/12 03:10:36;;;;;;;7.75;1.55;;;9.20;99.90;;;;;;6354865;22;20015;-67
2022/05/12 03:13:03;;;;;;;5.38;1.40;;;9.30;99.90;;;;;;6352425;22;20019;-70
2022/05/12 03:15:29;;;;;;;6.40;1.63;;;9.20;99.90;;;;;;6342675;22;20274;-70
2022/05/12 03:17:55;;;;;;;6.20;1.50;;;9.20;99.90;;;;;;6341356;22;20022;-75
2022/05/12 03:20:23;;;;;;;6.55;1.67;;;9.20;99.90;;;;;;6311592;22;20011;-74
2022/05/12 03:22:49;;;;;;;5.10;1.45;;;9.20;99.90;;;;;;6311704;22;20019;-68
2022/05/12 03:25:17;;;;;;;5.88;1.65;;;9.10;99.90;;;;;;6339126;22;20436;-71
2022/05/12 03:27:43;;;;;;;4.80;1.58;;;9.20;99.90;;;;;;6311595;22;20389;-69
2022/05/12 03:30:13;;;;;;;5.88;1.55;;;9.10;99.90;;;;;;6339165;22;20445;-74
2022/05/12 03:32:40;;;;;;;8.02;1.73;;;9.10;99.90;;;;;;6338647;22;20014;-74
2022/05/12 03:35:06;;;;;;;5.88;1.60;;;9.50;99.90;;;;;;6339222;22;20019;-74
2022/05/12 03:37:33;;;;;;;6.05;1.95;;;9.10;99.90;;;;;;6339410;22;20019;-67
2022/05/12 03:39:59;;;;;;;10.55;2.72;;;9.00;99.90;;;;;;6311637;22;20019;-67
2022/05/12 03:42:25;;;;;;;12.48;4.88;;;9.00;99.90;;;;;;6338942;22;20054;-72
2022/05/12 03:44:50;;;;;;;13.57;5.57;;;9.00;99.90;;;;;;6311476;22;20336;-67
2022/05/12 03:47:19;;;;;;;13.02;5.53;;;8.90;99.90;;;;;;6338247;22;20019;-71
2022/05/12 03:49:47;;;;;;;12.77;4.80;;;9.00;99.90;;;;;;6339460;22;20063;-67
2022/05/12 03:52:13;;;;;;;11.32;3.85;;;8.90;99.90;;;;;;6338828;22;20022;-68
2022/05/12 03:54:39;;;;;;;9.95;3.45;;;8.90;99.90;;;;;;6338826;22;20025;-67
2022/05/12 03:57:06;;;;;;;10.57;3.53;;;8.90;99.90;;;;;;6311066;22;20042;-73
2022/05/12 03:59:33;;;;;;;8.48;2.88;;;8.90;99.90;;;;;;6311744;22;20432;-66
2022/05/12 04:01:58;;;;;;;6.25;2.35;;;8.90;99.90;;;;;;6311120;22;20387;-72
2022/05/12 04:04:24;;;;;;;6.28;1.88;;;8.90;99.90;;;;;;6310685;22;20029;-73
2022/05/12 04:06:50;;;;;;;6.68;2.10;;;8.90;99.90;;;;;;6338560;22;20023;-67
2022/05/12 04:09:16;;;;;;;5.50;1.65;;;8.90;99.90;;;;;;6310958;22;20015;-68
2022/05/12 04:11:42;;;;;;;5.55;1.67;;;8.80;99.90;;;;;;6338932;22;20022;-74
2022/05/12 04:14:08;;;;;;;8.52;1.90;;;8.80;99.90;;;;;;6338488;22;20011;-67
2022/05/12 04:16:34;;;;;;;5.20;1.67;;;8.90;99.90;;;;;;6338956;22;20019;-68
2022/05/12 04:18:59;;;;;;;7.32;1.90;;;8.90;99.90;;;;;;6310718;22;20015;-73
2022/05/12 04:21:26;;;;;;;5.47;1.60;;;9.10;99.90;;;;;;6338949;22;20340;-72
2022/05/12 04:23:52;;;;;;;6.80;2.20;;;9.00;99.90;;;;;;6338600;22;20048;-74
2022/05/12 04:26:18;;;;;;;6.47;2.03;;;9.10;99.90;;;;;;6311091;22;20109;-70
2022/05/12 04:28:44;;;;;;;11.50;2.10;;;9.00;99.90;;;;;;6338998;22;20022;-67
2022/05/12 04:31:13;;;;;;;6.75;2.15;;;9.10;99.90;;;;;;6338434;22;20093;-75
2022/05/12 04:36:23;;;;;;;9.25;2.05;;;9.20;99.90;;;;;;6338365;22;20019;-67
2022/05/12 04:38:49;;;;;;;8.00;2.08;;;9.30;99.90;;;;;;6338664;22;20045;-68
2022/05/12 04:41:16;;;;;;;12.63;2.40;;;9.30;99.90;;;;;;6310742;22;20437;-67
2022/05/12 04:43:42;;;;;;;8.90;2.70;;;9.40;99.90;;;;;;6338933;22;20018;-74
2022/05/12 04:46:07;;;;;;;7.70;2.30;;;9.50;99.90;;;;;;6338825;22;20013;-67
2022/05/12 04:48:33;;;;;;;7.80;2.40;;;9.60;99.90;;;;;;6311014;22;20030;-68
2022/05/12 04:50:59;;;;;;;10.38;2.50;;;9.70;99.90;;;;;;6338396;22;20102;-66
2022/05/12 04:53:27;;;;;;;8.57;2.42;;;9.60;99.90;;;;;;6311000;22;20051;-69
2022/05/12 04:55:52;;;;;;;7.45;2.40;;;9.70;99.90;;;;;;6340159;22;20019;-68
2022/05/12 04:58:18;;;;;;;9.95;2.55;;;9.80;99.90;;;;;;6329877;22;20033;-70
2022/05/12 05:00:44;;;;;;;9.25;2.70;;;9.80;99.90;;;;;;6325256;22;20041;-70
2022/05/12 05:03:11;;;;;;;7.38;2.65;;;9.80;99.90;;;;;;6345065;22;20440;-73
2022/05/12 05:05:37;;;;;;;8.88;2.65;;;9.90;99.90;;;;;;6313896;22;20015;-74
2022/05/12 05:08:04;;;;;;;9.20;2.25;;;10.30;99.90;;;;;;6310862;22;20137;-74
2022/05/12 05:10:32;;;;;;;7.95;2.70;;;10.00;99.90;;;;;;6339154;22;20451;-72
2022/05/12 05:12:58;;;;;;;9.40;3.00;;;10.10;99.90;;;;;;6339082;22;20342;-71
2022/05/12 05:15:25;;;;;;;13.43;2.70;;;10.40;99.90;;;;;;6338521;22;20038;-73
2022/05/12 05:17:51;;;;;;;9.98;2.85;;;10.20;99.90;;;;;;6338749;22;20011;-75
2022/05/12 05:20:21;;;;;;;10.50;2.67;;;10.20;99.90;;;;;;6309382;22;20554;-75
2022/05/12 05:22:47;;;;;;;16.63;3.10;;;10.30;99.90;;;;;;6310031;22;20097;-73
2022/05/12 05:25:14;;;;;;;12.35;3.17;;;10.30;99.90;;;;;;6338591;22;20053;-69
2022/05/12 05:27:40;;;;;;;9.32;2.85;;;10.40;99.90;;;;;;6338553;22;20437;-71
2022/05/12 05:30:10;;;;;;;11.63;2.40;;;10.40;99.90;;;;;;6310412;22;20100;-70
2022/05/12 05:32:36;;;;;;;11.07;2.95;;;10.50;99.90;;;;;;6338537;22;20043;-73
2022/05/12 05:35:03;;;;;;;10.98;2.95;;;10.50;99.90;;;;;;6309487;22;20390;-75
2022/05/12 05:37:29;;;;;;;11.68;3.13;;;10.60;99.90;;;;;;6337428;22;20348;-73
2022/05/12 05:39:54;;;;;;;7.65;2.88;;;10.80;99.90;;;;;;6337952;22;20051;-69
2022/05/12 05:42:20;;;;;;;10.05;2.92;;;10.70;99.90;;;;;;6310336;22;20022;-69
2022/05/12 05:44:47;;;;;;;9.85;3.80;;;10.80;99.90;;;;;;6310342;22;20019;-73
2022/05/12 05:47:13;;;;;;;8.70;3.30;;;10.80;99.90;;;;;;6310280;22;20089;-71
2022/05/12 05:49:39;;;;;;;10.93;3.45;;;10.90;99.90;;;;;;6338384;22;20080;-69
2022/05/12 05:54:49;;;;;;;8.20;3.65;;;11.00;99.90;;;;;;6338217;22;20019;-70
2022/05/12 05:57:21;;;;;;;9.65;2.65;;;11.10;99.90;;;;;;6338282;22;20060;-66
2022/05/12 05:59:48;;;;;;;10.52;3.13;;;11.20;99.90;;;;;;6310314;22;20393;-71
2022/05/12 06:02:13;;;;;;;11.27;3.30;;;11.30;99.90;;;;;;6337862;22;20047;-74
2022/05/12 06:04:39;;;;;;;13.73;3.40;;;11.30;99.90;;;;;;6338045;22;20022;-68
2022/05/12 06:07:05;;;;;;;10.23;4.05;;;11.50;99.90;;;;;;6337783;22;20019;-68
2022/05/12 06:09:31;;;;;;;9.38;3.67;;;11.60;99.90;;;;;;6309597;22;20010;-69
2022/05/12 06:11:57;;;;;;;12.25;3.80;;;11.50;99.90;;;;;;6339456;22;20019;-67
2022/05/12 06:14:23;;;;;;;12.25;4.00;;;11.60;99.90;;;;;;6340132;22;20046;-65
2022/05/12 06:16:48;;;;;;;10.43;3.80;;;11.70;99.90;;;;;;6340149;22;20018;-68
2022/05/12 06:19:14;;;;;;;14.77;4.38;;;11.70;99.90;;;;;;6340360;22;20015;-73
2022/05/12 06:21:40;;;;;;;14.32;4.63;;;11.80;99.90;;;;;;6340008;22;20093;-71
2022/05/12 06:24:18;;;;;;;10.88;3.90;;;11.90;99.90;;;;;;6341255;22;20011;-70
2022/05/12 06:26:43;;;;;;;12.15;4.00;;;11.90;99.90;;;;;;6341117;22;20048;-75
2022/05/12 06:29:10;;;;;;;10.27;3.90;;;12.00;99.90;;;;;;6312408;22;20019;-69
2022/05/12 06:31:36;;;;;;;9.98;3.47;;;12.00;99.90;;;;;;6340346;22;20029;-66
2022/05/12 06:34:02;;;;;;;13.07;3.83;;;12.10;99.90;;;;;;6339730;22;20010;-72
2022/05/12 06:36:31;;;;;;;13.18;4.75;;;12.30;99.90;;;;;;6310935;22;20075;-77
2022/05/12 06:38:56;;;;;;;11.02;3.88;;;12.40;99.90;;;;;;6314048;22;20072;-70
2022/05/12 06:41:24;;;;;;;11.70;3.97;;;12.50;99.90;;;;;;6320295;22;20022;-67
2022/05/12 06:43:50;;;;;;;12.40;4.07;;;12.60;99.90;;;;;;6351109;22;20022;-72
2022/05/12 06:46:19;;;;;;;10.45;3.90;;;12.80;99.90;;;;;;6357404;22;20069;-68
2022/05/12 06:48:50;;;;;;;12.00;5.07;;;13.00;99.90;;;;;;6355544;22;20085;-77
2022/05/12 06:51:17;;;;;;;10.45;4.32;;;12.90;99.90;;;;;;6312451;22;20379;-76
2022/05/12 06:53:43;;;;;;;11.73;4.28;;;13.00;99.90;;;;;;6340216;22;20368;-70
2022/05/12 06:56:14;;;;;;;10.77;4.22;;;12.90;99.90;;;;;;6339495;22;20340;-67
2022/05/12 06:58:39;;;;;;;9.95;4.03;;;12.90;99.90;;;;;;6339521;22;20421;-68
2022/05/12 07:01:06;;;;;;;14.55;3.70;;;12.90;99.90;;;;;;6338864;22;20047;-66
2022/05/12 07:03:32;;;;;;;10.52;4.22;;;12.90;99.90;;;;;;6338668;22;20025;-70
2022/05/12 07:05:58;;;;;;;8.65;3.78;;;12.80;99.90;;;;;;6338897;22;20464;-65
2022/05/12 07:08:26;;;;;;;8.35;3.63;;;13.00;99.90;;;;;;6338077;22;20015;-68
2022/05/12 07:10:52;;;;;;;11.27;4.40;;;13.10;99.90;;;;;;6337346;22;20896;-66
2022/05/12 07:13:21;;;;;;;10.27;3.33;;;13.40;99.90;;;;;;6310615;22;20068;-66
2022/05/12 07:15:49;;;;;;;9.55;3.20;;;13.30;99.90;;;;;;6285147;22;20105;-68
2022/05/12 07:18:19;;;;;;;8.32;2.75;;;13.60;99.90;;;;;;6337872;22;20097;-66
2022/05/12 07:28:58;;;;;;;8.38;2.85;;;14.10;99.90;;;;;;6338601;22;20394;-69
2022/05/12 07:31:24;;;;;;;10.73;2.85;;;14.20;99.90;;;;;;6338958;22;20019;-69
2022/05/12 07:33:50;;;;;;;8.73;3.10;;;14.50;99.90;;;;;;6338847;22;20007;-69
2022/05/12 07:36:18;;;;;;;11.88;3.58;;;14.40;99.90;;;;;;6304241;22;20445;-70
2022/05/12 07:38:45;;;;;;;9.15;2.88;;;14.60;99.90;;;;;;6307544;22;20025;-68
2022/05/12 07:41:12;;;;;;;8.20;2.72;;;14.70;99.90;;;;;;6297999;22;20386;-71
2022/05/12 07:43:42;;;;;;;8.40;2.03;;;14.80;99.90;;;;;;6307262;22;20051;-67
2022/05/12 07:46:08;;;;;;;7.55;2.25;;;14.90;99.90;;;;;;6307233;22;20440;-68
2022/05/12 07:48:35;;;;;;;13.25;3.00;;;15.10;99.90;;;;;;6307063;22;20444;-69
2022/05/12 07:51:02;;;;;;;9.73;2.50;;;15.10;99.90;;;;;;6307681;22;20015;-71
2022/05/12 07:53:27;;;;;;;10.65;2.60;;;15.30;99.90;;;;;;6307012;22;20019;-73
2022/05/12 07:55:53;;;;;;;9.20;2.35;;;15.40;99.90;;;;;;6294226;22;20047;-68
2022/05/12 07:58:19;;;;;;;5.90;1.58;;;15.60;99.90;;;;;;6306852;22;20011;-70
2022/05/12 08:00:45;;;;;;;11.00;2.08;;;15.60;99.90;;;;;;6307193;22;20510;-71
2022/05/12 08:03:11;;;;;;;9.93;1.80;;;15.70;99.90;;;;;;6307284;22;20026;-70
2022/05/12 08:05:37;;;;;;;7.53;1.92;;;15.80;99.90;;;;;;6306547;22;20015;-76
2022/05/12 08:08:07;;;;;;;11.98;1.88;;;15.90;99.90;;;;;;6306899;22;20088;-74
2022/05/12 08:10:33;;;;;;;5.15;1.67;;;16.10;99.90;;;;;;6306958;22;20043;-75
2022/05/12 08:12:59;;;;;;;7.53;1.80;;;16.20;99.90;;;;;;6306599;22;20078;-69
2022/05/12 08:15:25;;;;;;;8.43;1.77;;;16.20;99.90;;;;;;6301650;22;20015;-75
2022/05/12 08:17:52;;;;;;;7.20;1.80;;;16.40;99.90;;;;;;6307358;22;20015;-67
2022/05/12 08:20:19;;;;;;;7.57;2.38;;;16.60;99.90;;;;;;6299288;22;20023;-68
2022/05/12 08:22:45;;;;;;;9.00;1.70;;;16.70;99.90;;;;;;6306778;22;20019;-70
2022/05/12 08:25:11;;;;;;;4.13;1.30;;;16.80;99.90;;;;;;6305657;22;20015;-70
2022/05/12 08:27:38;;;;;;;5.57;1.50;;;16.90;99.90;;;;;;6310955;22;20531;-66
2022/05/12 08:30:05;;;;;;;7.65;1.42;;;17.00;99.90;;;;;;6308358;22;20015;-68
2022/05/12 08:32:31;;;;;;;7.75;1.60;;;17.10;99.90;;;;;;6313571;22;20017;-69
2022/05/12 08:34:57;;;;;;;6.72;1.30;;;17.10;99.90;;;;;;6294887;22;20419;-66
2022/05/12 08:37:23;;;;;;;3.67;1.20;;;17.20;99.90;;;;;;6333818;22;20333;-76
2022/05/12 08:39:49;;;;;;;4.13;1.10;;;17.20;99.90;;;;;;6337866;22;20014;-68
2022/05/12 08:42:30;;;;;;;6.30;1.20;;;17.10;99.90;;;;;;6309633;22;20030;-66
2022/05/12 08:44:59;;;;;;;6.47;1.43;;;17.10;99.90;;;;;;6338177;22;20015;-74
2022/05/12 08:47:36;;;;;;;4.25;1.23;;;17.10;99.90;;;;;;6284970;22;20249;-77
2022/05/12 08:50:04;;;;;;;7.88;1.27;;;17.30;99.90;;;;;;6338394;22;20011;-75
2022/05/12 08:52:51;;;;;;;5.75;1.20;;;17.50;99.90;;;;;;6282357;22;20057;-74
2022/05/12 08:55:24;;;;;;;11.48;1.42;;;17.30;99.90;;;;;;6310246;22;20018;-76
2022/05/12 08:58:25;;;;;;;5.68;1.40;;;17.10;99.90;;;;;;6337663;22;20061;-74
2022/05/12 09:01:17;;;;;;;3.65;1.40;;;17.00;99.90;;;;;;6271635;22;20092;-72
2022/05/12 09:04:20;;;;;;;5.17;0.90;;;17.20;99.90;;;;;;6272370;22;20023;-70
2022/05/12 09:07:01;;;;;;;5.53;1.10;;;17.10;99.90;;;;;;6271803;22;20047;-68
2022/05/12 09:09:27;;;;;;;6.95;1.13;;;16.80;99.90;;;;;;6272124;22;20025;-69
2022/05/12 09:11:57;;;;;;;3.28;1.00;;;16.80;99.90;;;;;;6246635;22;20082;-69
2022/05/12 09:14:42;;;;;;;4.53;1.20;;;16.80;99.90;;;;;;6271656;22;20074;-69
2022/05/12 09:17:31;;;;;;;5.95;1.23;;;16.90;99.90;;;;;;6271975;22;20012;-69
2022/05/12 09:19:59;;;;;;;5.47;1.10;;;16.60;99.90;;;;;;6272047;22;20079;-69
2022/05/12 09:22:27;;;;;;;4.55;0.88;;;16.60;99.90;;;;;;6273113;22;20027;-69
2022/05/12 09:24:53;;;;;;;6.45;1.10;;;17.00;99.90;;;;;;6272550;22;20047;-87
2022/05/12 09:27:30;;;;;;;5.32;1.10;;;17.40;99.90;;;;;;6272772;22;20016;-72
2022/05/12 09:29:56;;;;;;;5.03;1.00;;;17.80;99.90;;;;;;6272442;22;20024;-68
2022/05/12 09:32:26;;;;;;;6.15;1.20;;;18.00;99.90;;;;;;6271949;22;20522;-75
2022/05/12 09:35:19;;;;;;;4.82;1.15;;;17.80;99.90;;;;;;6272658;22;20078;-77
2022/05/12 09:37:45;;;;;;;4.40;1.00;;;17.60;99.90;;;;;;6337742;22;20054;-70
2022/05/12 09:40:39;;;;;;;5.28;1.27;;;17.40;99.90;;;;;;6310761;22;20460;-71
2022/05/12 09:43:26;;;;;;;7.25;1.38;;;17.20;99.90;;;;;;6328158;22;20018;-75
2022/05/12 09:46:06;;;;;;;4.72;1.35;;;17.40;99.90;;;;;;6335701;22;20023;-69
2022/05/12 09:48:37;;;;;;;6.03;1.10;;;18.00;99.90;;;;;;6307920;22;20015;-72
2022/05/12 09:51:23;;;;;;;4.85;0.93;;;18.30;99.90;;;;;;6335577;22;20493;-68
2022/05/12 09:53:54;;;;;;;6.15;1.48;;;18.00;98.60;;;;;;6306895;22;20072;-71
2022/05/12 09:56:32;;;;;;;3.63;1.02;;;17.70;99.90;;;;;;6336350;22;20010;-70
2022/05/12 09:59:06;;;;;;;7.60;1.63;;;17.40;99.90;;;;;;6336907;22;20019;-69
2022/05/12 10:01:34;;;;;;;5.28;1.10;;;17.20;99.90;;;;;;6334290;22;20018;-67
2022/05/12 10:09:53;;;;;;;3.42;1.00;;;18.00;99.90;;;;;;6347939;22;19934;-67
2022/05/12 10:12:22;;;;;;;4.80;1.20;;;18.40;99.90;;;;;;6311747;22;20019;-66
2022/05/12 10:15:03;;;;;;;7.40;1.70;;;18.60;99.90;;;;;;6335470;22;20065;-68
2022/05/12 10:18:07;;;;;;;5.43;1.33;;;18.60;99.90;;;;;;6336147;22;20018;-68
2022/05/12 10:20:41;;;;;;;5.15;1.40;;;18.70;99.90;;;;;;6335619;22;20034;-67
2022/05/12 10:23:44;;;;;;;7.03;1.23;;;19.00;99.90;;;;;;6332857;22;20019;-67
2022/05/12 10:26:50;;;;;;;8.98;1.30;;;18.90;99.20;;;;;;6333365;22;20698;-66
2022/05/12 10:29:41;;;;;;;12.52;1.60;;;18.50;99.10;;;;;;6268388;22;20027;-69
2022/05/12 10:32:52;;;;;;;4.18;0.80;;;18.30;99.90;;;;;;6266350;22;20414;-69
2022/05/12 10:35:32;;;;;;;4.35;1.13;;;18.40;99.90;;;;;;6267555;22;20098;-67
2022/05/12 10:38:14;;;;;;;5.88;1.58;;;19.00;99.90;;;;;;6269154;22;20034;-72
2022/05/12 10:40:44;;;;;;;8.98;1.35;;;19.50;99.90;;;;;;6269596;22;20075;-67
2022/05/12 10:43:34;;;;;;;9.07;1.60;;;19.60;99.90;;;;;;6240816;22;20054;-70
2022/05/12 10:46:23;;;;;;;5.40;1.33;;;19.20;97.10;;;;;;6268251;22;20544;-67
2022/05/12 10:49:07;;;;;;;6.85;1.13;;;18.60;99.90;;;;;;6269083;22;20482;-72
2022/05/12 10:51:49;;;;;;;8.00;1.10;;;18.20;98.40;;;;;;6267315;22;20071;-73
2022/05/12 10:54:39;;;;;;;7.43;1.20;;;18.10;99.90;;;;;;6269002;22;20020;-71
2022/05/12 10:57:26;;;;;;;6.20;1.40;;;18.00;99.90;;;;;;6243075;22;20028;-69
2022/05/12 11:00:29;;;;;;;3.92;1.10;;;17.70;96.60;;;;;;6270575;22;20020;-68
2022/05/12 11:02:57;;;;;;;;;;;17.40;97.60;;;;;;6294751;22;20022;-79
2022/05/12 11:05:33;;;;;;;5.00;1.27;;;17.40;99.90;;;;;;6309502;22;19919;-78
2022/05/12 11:08:31;;;;;;;2.75;1.00;;;17.90;99.90;;;;;;6336948;22;20528;-71
2022/05/12 11:11:06;;;;;;;4.15;1.33;;;18.50;99.70;;;;;;6311094;22;20068;-66
2022/05/12 11:13:57;;;;;;;7.45;1.80;;;18.90;98.60;;;;;;6335840;22;20362;-68
2022/05/12 11:16:29;;;;;;;3.42;1.13;;;19.20;94.90;;;;;;6337882;22;20019;-71
2022/05/12 11:19:20;;;;;;;5.07;1.25;;;19.00;97.70;;;;;;6309387;22;20011;-72
2022/05/12 11:22:25;;;;;;;4.65;1.20;;;18.70;95.20;;;;;;6336715;22;20085;-67
2022/05/12 11:25:02;;;;;;;3.17;0.90;;;18.60;96.90;;;;;;6311348;22;20075;-66
2022/05/12 11:31:01;;;;;;;9.38;1.42;;;18.00;94.50;;;;;;6336392;22;20060;-71
2022/05/12 11:33:37;;;;;;;4.25;1.00;;;17.80;96.60;;;;;;6331830;22;20067;-69
2022/05/12 11:36:04;;;;;;;8.52;2.20;;;17.80;97.50;;;;;;6335653;22;20063;-73
2022/05/12 11:38:42;;;;;;;6.05;1.40;;;17.90;99.20;;;;;;6335236;22;20448;-69
2022/05/12 11:41:37;;;;;;;2.80;0.90;;;18.40;95.80;;;;;;6307652;22;20356;-69
2022/05/12 11:44:29;;;;;;;5.28;1.02;;;19.20;91.10;;;;;;6306747;22;20448;-72
2022/05/12 11:47:16;;;;;;;5.47;1.20;;;19.70;85.90;;;;;;6337044;22;20019;-67
2022/05/12 11:49:57;;;;;;;4.40;1.10;;;20.10;90.00;;;;;;6336643;22;20252;-70
2022/05/12 11:52:54;;;;;;;3.40;0.95;;;20.10;76.30;;;;;;6352658;22;20007;-69
2022/05/12 11:55:22;;;;;;;4.65;0.95;;;20.30;76.50;;;;;;6317032;22;20110;-75
2022/05/12 11:58:04;;;;;;;3.75;1.08;;;20.50;78.90;;;;;;6343479;22;20097;-65
2022/05/12 12:00:35;;;;;;;4.28;0.70;;;20.80;75.00;;;;;;6337564;22;20021;-69
2022/05/12 12:03:19;;;;;;;3.80;1.00;;;20.90;69.80;;;;;;6336333;22;20475;-75
2022/05/12 12:05:50;;;;;;;4.00;0.85;;;20.90;68.00;;;;;;6335705;22;20438;-67
2022/05/12 12:08:31;;;;;;;2.70;0.82;;;20.80;69.60;;;;;;6335729;22;20026;-71
2022/05/12 12:11:17;;;;;;;4.75;0.80;;;20.90;66.00;;;;;;6335504;22;20093;-69
2022/05/12 12:13:47;;;;;;;5.50;0.98;;;20.70;65.70;;;;;;6335853;22;20435;-67
2022/05/12 12:16:19;;;;;;;2.63;0.77;;;20.30;67.60;;;;;;6335649;22;20353;-69
2022/05/12 12:18:52;;;;;;;5.72;0.93;;;20.30;66.70;;;;;;6336183;22;20493;-69
2022/05/12 12:21:38;;;;;;;2.33;0.68;;;20.60;68.70;;;;;;6305091;22;20083;-70
2022/05/12 12:24:19;;;;;;;3.15;0.80;;;20.50;63.60;;;;;;6335865;22;20258;-68
2022/05/12 12:26:50;;;;;;;6.78;1.00;;;20.30;65.40;;;;;;6308287;22;20049;-67
2022/05/12 12:29:20;;;;;;;3.25;0.68;;;20.30;68.30;;;;;;6335566;22;20027;-69
2022/05/12 12:31:50;;;;;;;4.85;0.90;;;20.10;67.60;;;;;;6305559;22;20051;-66
2022/05/12 12:34:45;;;;;;;3.88;0.95;;;20.00;64.70;;;;;;6336285;22;20045;-73
2022/05/12 12:37:10;;;;;;;13.60;1.27;;;20.00;61.70;;;;;;6334800;22;20050;-66
2022/05/12 12:39:48;;;;;;;4.95;1.00;;;19.90;66.10;;;;;;6335997;22;20072;-67
2022/05/12 12:42:33;;;;;;;3.63;1.00;;;19.70;66.80;;;;;;6305261;22;20655;-67
2022/05/12 12:45:15;;;;;;;4.95;0.93;;;19.60;67.80;;;;;;6257806;22;20089;-67
2022/05/12 12:48:01;;;;;;;1.90;0.70;;;19.40;68.10;;;;;;6336137;22;20098;-68
2022/05/12 12:50:50;;;;;;;5.28;1.00;;;19.60;67.10;;;;;;6335984;22;20006;-68
2022/05/12 12:56:30;;;;;;;3.22;1.23;;;19.60;67.10;;;;;;6333511;22;20087;-68
2022/05/12 12:56:30;;;;;;;5.82;0.90;;;19.70;70.10;;;;;;6334136;22;20019;-69
2022/05/12 12:58:58;;;;;;;4.55;1.33;;;19.80;65.80;;;;;;6335706;22;20125;-68
2022/05/12 13:01:55;;;;;;;4.93;0.88;;;19.70;68.90;;;;;;6305304;22;20027;-70
2022/05/12 13:04:25;;;;;;;3.95;0.80;;;19.50;67.40;;;;;;6335286;22;20019;-68
2022/05/12 13:06:56;;;;;;;4.05;1.00;;;19.30;68.50;;;;;;6335239;22;20015;-69
2022/05/12 13:09:26;;;;;;;6.63;1.00;;;19.80;67.70;;;;;;6335452;22;20020;-67
2022/05/12 13:12:12;;;;;;;3.50;0.80;;;20.20;68.50;;;;;;6305938;22;20022;-69
2022/05/12 13:14:40;;;;;;;3.58;0.77;;;20.30;63.70;;;;;;6335762;22;20022;-67
2022/05/12 13:17:07;;;;;;;5.00;0.93;;;20.00;67.00;;;;;;6335493;22;20015;-69
2022/05/12 13:19:39;;;;;;;3.65;0.95;;;19.90;67.70;;;;;;6334796;22;20006;-67
2022/05/12 13:22:08;;;;;;;5.40;1.00;;;19.80;67.20;;;;;;6333266;22;20097;-66
2022/05/12 13:24:38;;;;;;;4.03;0.93;;;19.90;68.40;;;;;;6307275;22;20010;-67
2022/05/12 13:27:07;;;;;;;2.95;0.80;;;20.00;69.00;;;;;;6306893;22;20344;-69
2022/05/12 13:29:37;;;;;;;3.35;0.80;;;20.30;68.80;;;;;;6336207;22;20015;-66
2022/05/12 13:32:06;;;;;;;5.85;0.88;;;20.50;68.00;;;;;;6286174;22;20073;-65